createdAt,value
2019-03-19T00:04:27.863Z,3.20
2019-03-19T00:09:33.514Z,3.33
2019-03-19T00:14:38.785Z,3.17
2019-03-19T00:19:44.125Z,3.77
2019-03-19T00:24:49.506Z,3.80
2019-03-19T00:29:54.875Z,4.20
2019-03-19T00:35:00.825Z,3.10
2019-03-19T00:40:09.256Z,3.10
2019-03-19T00:45:15.241Z,3.17
2019-03-19T00:50:20.993Z,3.53
2019-03-19T00:55:45.603Z,3.27
2019-03-19T01:00:51.156Z,3.40
2019-03-19T01:05:56.767Z,2.90
2019-03-19T01:11:01.707Z,3.63
2019-03-19T01:16:07.078Z,2.13
2019-03-19T01:21:32.053Z,4.90
2019-03-19T01:26:38.024Z,3.20
2019-03-19T01:31:43.631Z,2.90
2019-03-19T01:36:48.957Z,4.30
2019-03-19T01:42:04.156Z,3.20
2019-03-19T01:47:28.756Z,4.53
2019-03-19T01:52:46.018Z,3.60
2019-03-19T01:57:51.576Z,3.47
2019-03-19T02:02:56.929Z,3.40
2019-03-19T02:08:22.353Z,3.23
2019-03-19T02:13:29.145Z,2.93
2019-03-19T02:18:35.931Z,2.63
2019-03-19T02:23:42.726Z,2.73
2019-03-19T02:28:49.548Z,3.47
2019-03-19T02:33:55.301Z,3.10
2019-03-19T02:39:01.461Z,2.87
2019-03-19T02:44:08.268Z,3.33
2019-03-19T02:49:14.046Z,2.70
2019-03-19T02:54:20.828Z,2.77
2019-03-19T02:59:26.807Z,3.90
2019-03-19T03:04:33.628Z,2.60
2019-03-19T03:09:39.195Z,3.00
2019-03-19T03:14:46.258Z,3.33
2019-03-19T03:19:51.297Z,3.40
2019-03-19T03:24:56.545Z,4.07
2019-03-19T03:30:02.386Z,3.93
2019-03-19T03:35:09.419Z,4.83
2019-03-19T03:40:16.690Z,4.67
2019-03-19T03:45:21.988Z,3.90
2019-03-19T03:50:27.356Z,5.07
2019-03-19T03:55:32.516Z,4.20
2019-03-19T04:00:37.651Z,4.80
2019-03-19T04:05:43.008Z,4.37
2019-03-19T04:10:48.636Z,5.23
2019-03-19T04:15:53.961Z,4.17
2019-03-19T04:20:59.510Z,6.57
2019-03-19T04:26:04.600Z,4.47
2019-03-19T04:31:09.812Z,4.90
2019-03-19T04:36:15.689Z,4.80
2019-03-19T04:41:20.945Z,5.73
2019-03-19T04:46:26.302Z,4.20
2019-03-19T04:51:31.624Z,5.90
2019-03-19T04:56:37.053Z,4.70
2019-03-19T05:01:42.699Z,5.70
2019-03-19T05:06:48.165Z,4.97
2019-03-19T05:11:53.334Z,5.53
2019-03-19T05:16:58.687Z,5.23
2019-03-19T05:22:04.054Z,5.47
2019-03-19T05:27:09.228Z,6.07
2019-03-19T05:32:14.558Z,4.50
2019-03-19T05:37:19.917Z,6.20
2019-03-19T05:42:25.157Z,5.13
2019-03-19T05:47:37.310Z,5.43
2019-03-19T05:52:37.531Z,5.87
2019-03-19T05:57:49.454Z,5.50
2019-03-19T06:02:49.568Z,6.60
2019-03-19T06:07:54.725Z,5.40
2019-03-19T06:12:59.968Z,7.07
2019-03-19T06:18:05.455Z,5.53
2019-03-19T06:23:11.742Z,7.73
2019-03-19T06:28:17.303Z,6.80
2019-03-19T06:33:22.955Z,6.70
2019-03-19T06:38:28.214Z,5.80
2019-03-19T06:43:33.704Z,7.47
2019-03-19T06:48:39.053Z,6.83
2019-03-19T06:53:44.295Z,6.97
2019-03-19T06:58:49.559Z,6.87
2019-03-19T07:03:54.676Z,13.90
2019-03-19T07:08:59.970Z,6.23
2019-03-19T07:14:05.234Z,6.97
2019-03-19T07:19:10.615Z,6.10
2019-03-19T07:24:15.924Z,6.40
2019-03-19T07:29:21.303Z,5.47
2019-03-19T07:34:26.674Z,6.87
2019-03-19T07:39:32.269Z,5.23
2019-03-19T07:44:38.049Z,6.40
2019-03-19T07:49:44.504Z,4.27
2019-03-19T07:54:50.133Z,4.93
2019-03-19T07:59:55.310Z,5.13
2019-03-19T08:05:00.846Z,5.17
2019-03-19T08:10:11.793Z,5.00
2019-03-19T08:15:18.513Z,3.80
2019-03-19T08:20:42.900Z,4.40
2019-03-19T08:25:48.120Z,5.07
2019-03-19T08:30:53.292Z,4.43
2019-03-19T08:36:08.746Z,4.70
2019-03-19T08:41:05.269Z,4.17
2019-03-19T08:46:10.915Z,4.10
2019-03-19T08:51:16.221Z,3.00
2019-03-19T08:56:21.471Z,4.80
2019-03-19T09:01:26.755Z,4.37
2019-03-19T09:06:31.981Z,3.50
2019-03-19T09:11:37.566Z,3.93
2019-03-19T09:16:42.726Z,5.03
2019-03-19T09:21:47.858Z,3.60
2019-03-19T09:26:53.240Z,4.93
2019-03-19T09:31:58.390Z,4.60
2019-03-19T09:37:03.782Z,5.50
2019-03-19T09:42:09.115Z,3.87
2019-03-19T09:47:14.329Z,3.50
2019-03-19T09:52:19.601Z,3.63
2019-03-19T09:57:25.101Z,3.90
2019-03-19T10:02:51.059Z,3.93
2019-03-19T10:07:57.011Z,4.73
2019-03-19T10:13:02.164Z,4.90
2019-03-19T10:18:07.550Z,3.10
2019-03-19T10:23:12.816Z,3.20
2019-03-19T10:28:18.208Z,3.30
2019-03-19T10:33:23.609Z,2.63
2019-03-19T10:38:28.743Z,2.67
2019-03-19T10:43:34.558Z,2.37
2019-03-19T10:48:39.897Z,2.60
2019-03-19T10:53:45.459Z,2.00
2019-03-19T10:58:50.791Z,2.00
2019-03-19T11:03:55.949Z,1.87
2019-03-19T11:09:01.163Z,1.57
2019-03-19T11:14:06.493Z,1.80
2019-03-19T11:19:12.007Z,1.70
2019-03-19T11:24:17.602Z,2.10
2019-03-19T11:29:22.975Z,1.37
2019-03-19T11:34:28.300Z,2.30
2019-03-19T11:39:33.255Z,1.70
2019-03-19T11:44:42.886Z,1.50
2019-03-19T11:49:48.466Z,1.40
2019-03-19T11:54:53.931Z,1.50
2019-03-19T12:00:10.530Z,1.50
2019-03-19T12:05:08.745Z,1.57
2019-03-19T12:10:14.491Z,2.00
2019-03-19T12:15:19.847Z,2.00
2019-03-19T12:20:25.001Z,1.67
2019-03-19T12:25:31.437Z,2.40
2019-03-19T12:30:36.690Z,2.30
2019-03-19T12:35:41.536Z,1.87
2019-03-19T12:40:46.855Z,2.33
2019-03-19T12:45:51.784Z,2.03
2019-03-19T12:50:56.836Z,2.43
2019-03-19T12:56:02.009Z,3.10
2019-03-19T13:01:06.947Z,2.47
2019-03-19T13:06:12.408Z,2.90
2019-03-19T13:11:17.574Z,2.93
2019-03-19T13:16:22.716Z,2.70
2019-03-19T13:21:28.398Z,1.97
2019-03-19T13:26:33.428Z,1.17
2019-03-19T13:31:39.051Z,1.60
2019-03-19T13:36:44.208Z,1.47
2019-03-19T13:41:49.649Z,1.63
2019-03-19T13:46:54.845Z,0.70
2019-03-19T13:52:00.679Z,1.33
2019-03-19T13:57:06.130Z,1.10
2019-03-19T14:02:11.952Z,1.23
2019-03-19T14:07:17.261Z,1.70
2019-03-19T14:12:22.871Z,1.20
2019-03-19T14:17:28.251Z,1.57
2019-03-19T14:22:33.973Z,1.40
2019-03-19T14:27:39.559Z,1.63
2019-03-19T14:32:44.987Z,2.30
2019-03-19T14:37:50.322Z,1.50
2019-03-19T14:42:58.341Z,2.47
2019-03-19T14:48:02.922Z,2.50
2019-03-19T14:53:08.480Z,2.50
2019-03-19T14:58:13.437Z,3.13
2019-03-19T15:03:19.000Z,3.47
2019-03-19T15:08:25.555Z,2.53
2019-03-19T15:13:31.287Z,4.53
2019-03-19T15:18:49.926Z,2.70
2019-03-19T15:23:57.767Z,3.40
2019-03-19T15:29:03.217Z,3.10
2019-03-19T15:34:09.886Z,2.40
2019-03-19T15:39:15.589Z,3.33
2019-03-19T15:44:21.018Z,2.80
2019-03-19T15:49:26.244Z,3.43
2019-03-19T15:54:31.530Z,3.07
2019-03-19T15:59:37.385Z,2.67
2019-03-19T16:04:42.437Z,3.50
2019-03-19T16:09:47.881Z,3.67
2019-03-19T16:14:53.146Z,2.67
2019-03-19T16:19:59.028Z,3.23
2019-03-19T16:25:06.007Z,4.43
2019-03-19T16:30:18.748Z,6.20
2019-03-19T16:35:24.121Z,6.90
2019-03-19T16:40:29.250Z,5.47
2019-03-19T16:45:34.902Z,4.67
2019-03-19T16:50:40.191Z,3.20
2019-03-19T16:55:45.365Z,3.30
2019-03-19T17:00:50.664Z,3.80
2019-03-19T17:05:55.674Z,5.60
2019-03-19T17:11:01.106Z,6.00
2019-03-19T17:16:06.471Z,8.03
2019-03-19T17:21:11.705Z,8.53
2019-03-19T17:26:17.042Z,7.80
2019-03-19T17:31:22.383Z,6.57
2019-03-19T17:36:27.964Z,6.77
2019-03-19T17:41:34.455Z,6.93
2019-03-19T17:46:39.943Z,8.10
2019-03-19T17:51:45.296Z,8.03
2019-03-19T17:56:50.904Z,10.90
2019-03-19T18:01:56.410Z,7.43
2019-03-19T18:07:02.126Z,8.33
2019-03-19T18:12:07.579Z,7.50
2019-03-19T18:17:13.331Z,6.60
2019-03-19T18:22:18.937Z,7.27
2019-03-19T18:27:24.415Z,7.60
2019-03-19T18:32:34.941Z,8.47
2019-03-19T18:37:37.316Z,6.70
2019-03-19T18:42:42.651Z,9.50
2019-03-19T18:47:48.084Z,9.17
2019-03-19T18:52:53.720Z,7.33
2019-03-19T18:57:59.291Z,7.50
2019-03-19T19:03:05.038Z,11.23
2019-03-19T19:08:29.594Z,12.07
2019-03-19T19:13:34.849Z,14.97
2019-03-19T19:18:40.799Z,11.37
2019-03-19T19:23:46.145Z,11.93
2019-03-19T19:28:51.737Z,12.33
2019-03-19T19:33:57.969Z,10.87
2019-03-19T19:39:04.500Z,11.60
2019-03-19T19:44:10.375Z,11.23
2019-03-19T19:49:17.054Z,12.57
2019-03-19T19:54:23.008Z,10.27
2019-03-19T19:59:28.384Z,10.20
2019-03-19T20:05:02.554Z,13.07
2019-03-19T20:10:00.351Z,10.53
2019-03-19T20:15:08.990Z,13.20
2019-03-19T20:20:16.639Z,15.57
2019-03-19T20:25:21.873Z,13.13
2019-03-19T20:30:28.629Z,12.20
2019-03-19T20:35:33.784Z,12.87
2019-03-19T20:40:39.041Z,11.80
2019-03-19T20:45:44.681Z,10.30
2019-03-19T20:50:52.642Z,11.30
2019-03-19T20:55:58.131Z,12.63
2019-03-19T21:01:03.918Z,10.27
2019-03-19T21:06:09.835Z,10.93
2019-03-19T21:11:16.276Z,11.23
2019-03-19T21:16:41.301Z,10.20
2019-03-19T21:21:47.356Z,11.93
2019-03-19T21:27:12.562Z,14.50
2019-03-19T21:32:18.548Z,12.23
2019-03-19T21:37:24.595Z,12.40
2019-03-19T21:42:30.561Z,12.33
2019-03-19T21:47:36.378Z,11.77
2019-03-19T21:53:01.541Z,14.47
2019-03-19T21:58:07.404Z,14.10
2019-03-19T22:03:13.315Z,16.33
2019-03-19T22:08:18.744Z,15.03
2019-03-19T22:13:24.338Z,16.17
2019-03-19T22:18:30.309Z,14.53
2019-03-19T22:23:35.624Z,16.70
2019-03-19T22:28:41.016Z,12.30
2019-03-19T22:33:47.009Z,16.57
2019-03-19T22:38:52.644Z,17.37
2019-03-19T22:43:58.154Z,14.60
2019-03-19T22:49:03.367Z,18.00
2019-03-19T22:54:09.037Z,16.90
2019-03-19T22:59:33.887Z,21.37
2019-03-19T23:04:39.393Z,20.50
2019-03-19T23:09:45.168Z,22.00
2019-03-19T23:14:50.598Z,21.27
2019-03-19T23:19:57.451Z,19.03
2019-03-19T23:25:03.157Z,23.07
2019-03-19T23:30:16.750Z,18.17
2019-03-19T23:35:22.076Z,22.53
2019-03-19T23:40:27.806Z,19.73
2019-03-19T23:45:33.334Z,24.73
2019-03-19T23:50:39.108Z,23.77
2019-03-19T23:55:44.675Z,22.67
